Time;durP1;ratioP1;P1;durP2;ratioP2;P2;SDS_P1;SDS_P2;PMS_P1;PMS_P2;Temp;Humidity;BMP_temperature;BMP_pressure;BME280_temperature;BME280_humidity;BME280_pressure;Samples;Min_cycle;Max_cycle;Signal;HPM_P1;HPM_P2
2022/10/25 00:00:54;;;;;;;20.35;12.10;;;25.00;99.90;;;;;;4976834;28;20062;-63
2022/10/25 00:03:21;;;;;;;21.13;14.70;;;25.00;99.90;;;;;;5013472;28;20016;-64
2022/10/25 00:05:48;;;;;;;17.27;11.60;;;25.00;99.90;;;;;;5013518;28;20064;-64
2022/10/25 00:08:14;;;;;;;19.48;10.82;;;25.00;99.90;;;;;;5013319;28;20080;-63
2022/10/25 00:10:41;;;;;;;25.65;13.73;;;25.00;99.90;;;;;;5013197;28;20025;-60
2022/10/25 00:13:07;;;;;;;23.27;10.82;;;25.00;99.90;;;;;;5011613;28;20046;-64
2022/10/25 00:15:34;;;;;;;21.02;9.75;;;25.00;99.90;;;;;;5014219;28;20096;-65
2022/10/25 00:18:00;;;;;;;21.95;13.77;;;25.00;99.90;;;;;;5013468;28;20457;-63
2022/10/25 00:20:27;;;;;;;19.95;10.82;;;25.10;99.90;;;;;;5013171;28;20022;-65
2022/10/25 00:22:54;;;;;;;15.55;11.45;;;25.10;99.90;;;;;;5013252;28;20053;-63
2022/10/25 00:25:20;;;;;;;15.85;11.25;;;25.00;99.90;;;;;;5012459;28;20378;-65
2022/10/25 00:27:47;;;;;;;16.73;10.60;;;25.00;99.90;;;;;;5013875;28;20018;-65
2022/10/25 00:30:14;;;;;;;23.42;11.27;;;25.00;99.90;;;;;;5013398;28;20045;-65
2022/10/25 00:32:40;;;;;;;15.63;9.25;;;25.10;99.90;;;;;;5013517;28;20076;-65
2022/10/25 00:35:08;;;;;;;15.23;8.43;;;25.10;99.90;;;;;;5013967;28;20064;-66
2022/10/25 00:37:36;;;;;;;13.15;8.82;;;25.10;99.90;;;;;;5013433;28;20033;-66
2022/10/25 00:40:03;;;;;;;11.43;8.18;;;25.20;99.90;;;;;;5013364;28;20041;-66
2022/10/25 00:42:30;;;;;;;20.73;8.30;;;25.20;99.90;;;;;;5013594;28;20033;-66
2022/10/25 00:45:00;;;;;;;14.25;8.35;;;25.20;99.90;;;;;;5013332;28;20029;-66
2022/10/25 00:47:41;;;;;;;39.63;27.27;;;25.20;99.90;;;;;;5013070;28;20022;-66
2022/10/25 00:50:19;;;;;;;13.52;6.55;;;25.30;99.90;;;;;;5011945;28;20486;-66
2022/10/25 00:52:49;;;;;;;10.25;6.25;;;25.30;99.90;;;;;;5011410;28;20053;-65
2022/10/25 00:55:19;;;;;;;19.33;10.68;;;25.30;99.90;;;;;;5013248;28;20056;-67
2022/10/25 00:57:55;;;;;;;12.43;6.95;;;25.30;99.90;;;;;;5013399;28;20034;-67
2022/10/25 01:00:22;;;;;;;9.95;6.38;;;25.40;99.90;;;;;;5010650;28;20487;-66
2022/10/25 01:02:49;;;;;;;10.50;6.40;;;25.40;99.90;;;;;;5013127;28;20052;-66
2022/10/25 01:05:17;;;;;;;9.07;6.55;;;25.30;99.90;;;;;;5013443;28;20021;-68
2022/10/25 01:07:44;;;;;;;14.20;7.57;;;25.40;99.90;;;;;;5008852;28;20028;-65
2022/10/25 01:10:11;;;;;;;10.15;6.75;;;25.40;99.90;;;;;;5013376;28;20060;-66
2022/10/25 01:12:37;;;;;;;13.75;8.20;;;25.50;99.90;;;;;;5012866;28;20025;-69
2022/10/25 01:15:05;;;;;;;14.38;7.07;;;25.50;99.90;;;;;;5013479;28;20301;-66
2022/10/25 01:17:38;;;;;;;11.85;6.32;;;25.50;99.90;;;;;;5013032;28;20109;-66
2022/10/25 01:20:33;;;;;;;13.27;6.75;;;25.60;99.90;;;;;;5010794;28;20078;-64
2022/10/25 01:23:17;;;;;;;10.38;6.72;;;25.60;99.90;;;;;;5012375;28;20116;-66
2022/10/25 01:25:46;;;;;;;24.40;18.08;;;25.70;99.90;;;;;;5010942;28;20022;-66
2022/10/25 01:28:26;;;;;;;107.32;75.07;;;25.70;99.90;;;;;;5013111;28;20459;-65
2022/10/25 01:30:56;;;;;;;18.40;12.13;;;25.80;99.90;;;;;;5011823;28;20030;-64
2022/10/25 01:33:36;;;;;;;8.15;6.25;;;25.80;99.90;;;;;;5010335;28;20030;-63
2022/10/25 01:36:13;;;;;;;15.70;11.65;;;25.90;99.90;;;;;;5013191;28;20029;-64
2022/10/25 01:38:51;;;;;;;9.40;6.28;;;25.90;99.90;;;;;;5006820;28;20084;-63
2022/10/25 01:41:26;;;;;;;12.60;6.70;;;25.90;99.90;;;;;;5000994;28;20030;-64
2022/10/25 01:43:59;;;;;;;10.18;6.68;;;25.90;99.90;;;;;;4993723;28;20030;-64
2022/10/25 01:46:38;;;;;;;13.27;7.72;;;25.90;99.90;;;;;;4993380;28;20538;-63
2022/10/25 01:49:09;;;;;;;13.52;7.82;;;25.90;99.90;;;;;;4993906;28;20023;-64
2022/10/25 01:51:37;;;;;;;11.67;7.23;;;26.00;99.90;;;;;;4993396;28;20026;-64
2022/10/25 01:54:16;;;;;;;11.77;7.35;;;26.00;99.90;;;;;;4993205;28;20381;-63
2022/10/25 01:57:08;;;;;;;15.98;8.60;;;26.10;99.90;;;;;;4993325;28;20033;-64
2022/10/25 02:00:14;;;;;;;11.07;7.10;;;26.20;99.90;;;;;;4935793;29;20035;-63
2022/10/25 02:03:01;;;;;;;11.93;8.73;;;26.20;99.90;;;;;;4947556;29;20036;-64
2022/10/25 02:05:28;;;;;;;13.75;7.50;;;26.30;99.90;;;;;;4952042;29;20036;-63
2022/10/25 02:08:08;;;;;;;14.07;9.20;;;26.50;99.90;;;;;;4952678;29;20036;-64
2022/10/25 02:10:40;;;;;;;14.75;8.80;;;26.50;99.90;;;;;;4952685;29;20396;-63
2022/10/25 02:13:07;;;;;;;11.50;8.35;;;26.50;99.90;;;;;;4952138;29;20090;-63
2022/10/25 02:15:38;;;;;;;16.67;9.55;;;26.60;99.90;;;;;;4952635;29;20031;-65
2022/10/25 02:18:12;;;;;;;23.63;10.10;;;26.70;99.90;;;;;;4951980;29;20489;-65
2022/10/25 02:20:41;;;;;;;17.40;10.43;;;26.90;99.90;;;;;;4955360;28;20437;-64
2022/10/25 02:23:08;;;;;;;15.15;10.30;;;27.00;99.90;;;;;;4956047;29;20036;-63
2022/10/25 02:25:36;;;;;;;18.52;10.20;;;27.00;99.90;;;;;;4955445;29;20464;-64
2022/10/25 02:28:07;;;;;;;22.20;10.20;;;27.00;99.90;;;;;;4955770;29;20027;-63
2022/10/25 02:30:35;;;;;;;14.75;9.57;;;27.00;99.90;;;;;;4994592;28;20030;-62
2022/10/25 02:33:02;;;;;;;15.80;9.77;;;27.00;99.90;;;;;;5015894;28;20018;-63
2022/10/25 02:35:29;;;;;;;18.95;9.32;;;27.00;99.90;;;;;;5016077;28;20486;-61
2022/10/25 02:37:55;;;;;;;18.42;10.63;;;27.00;99.90;;;;;;5015824;28;20029;-61
2022/10/25 02:40:23;;;;;;;14.20;9.50;;;26.90;99.90;;;;;;5016050;28;20046;-62
2022/10/25 02:42:49;;;;;;;13.75;8.90;;;26.90;99.90;;;;;;5015892;28;20021;-63
2022/10/25 02:45:16;;;;;;;29.00;10.73;;;26.90;99.90;;;;;;5015914;28;20118;-62
2022/10/25 02:47:43;;;;;;;15.38;9.57;;;27.00;99.90;;;;;;5015700;28;20069;-63
2022/10/25 02:50:09;;;;;;;23.85;10.52;;;27.00;99.90;;;;;;5016095;28;20473;-63
2022/10/25 02:52:36;;;;;;;14.85;10.30;;;27.00;99.90;;;;;;5015737;28;20022;-63
2022/10/25 02:55:03;;;;;;;24.08;17.63;;;27.10;99.90;;;;;;5015643;28;20038;-61
2022/10/25 02:57:34;;;;;;;25.17;19.10;;;27.20;99.90;;;;;;5015794;28;20033;-63
2022/10/25 03:00:00;;;;;;;14.80;11.13;;;27.20;99.90;;;;;;5015532;28;20053;-65
2022/10/25 03:02:27;;;;;;;16.30;9.20;;;27.30;99.90;;;;;;5015421;28;20029;-63
2022/10/25 03:04:54;;;;;;;16.80;8.80;;;27.40;99.90;;;;;;5016041;28;20036;-64
2022/10/25 03:07:20;;;;;;;16.10;8.13;;;27.50;99.90;;;;;;5015409;28;20384;-64
2022/10/25 03:09:47;;;;;;;12.48;7.95;;;27.40;99.90;;;;;;5015423;28;20033;-64
2022/10/25 03:12:13;;;;;;;14.30;8.40;;;27.30;99.90;;;;;;5015488;28;20045;-64
2022/10/25 03:14:40;;;;;;;11.32;7.80;;;27.30;99.90;;;;;;5015204;28;20077;-64
2022/10/25 03:17:07;;;;;;;10.73;7.00;;;27.30;99.90;;;;;;5015280;28;20041;-59
2022/10/25 03:19:33;;;;;;;10.35;7.78;;;27.30;99.90;;;;;;5014872;28;20030;-65
2022/10/25 03:22:00;;;;;;;13.73;9.38;;;27.30;99.90;;;;;;5015272;28;20014;-63
2022/10/25 03:24:26;;;;;;;15.38;8.50;;;27.40;99.90;;;;;;5015150;28;20076;-62
2022/10/25 03:26:53;;;;;;;20.98;9.65;;;27.50;99.90;;;;;;5014732;28;20052;-64
2022/10/25 03:29:19;;;;;;;10.38;7.55;;;27.50;99.90;;;;;;5015112;28;20026;-63
2022/10/25 03:31:46;;;;;;;17.95;8.93;;;27.60;99.90;;;;;;5014419;28;20034;-64
2022/10/25 03:34:12;;;;;;;12.68;8.90;;;27.60;99.90;;;;;;5014758;28;20037;-64
2022/10/25 03:36:39;;;;;;;13.07;8.20;;;27.50;99.90;;;;;;5015151;28;20100;-64
2022/10/25 03:39:05;;;;;;;11.20;7.63;;;27.50;99.90;;;;;;5014529;28;20104;-64
2022/10/25 03:41:32;;;;;;;20.70;8.80;;;27.50;99.90;;;;;;5015296;28;20399;-63
2022/10/25 03:43:59;;;;;;;12.93;9.50;;;27.50;99.90;;;;;;5014828;28;20033;-64
2022/10/25 03:46:25;;;;;;;14.05;9.82;;;27.60;99.90;;;;;;5014115;28;20443;-63
2022/10/25 03:48:52;;;;;;;15.50;8.30;;;27.70;99.90;;;;;;5014780;28;20459;-64
2022/10/25 03:51:18;;;;;;;16.17;9.30;;;27.60;99.90;;;;;;5013719;28;20026;-63
2022/10/25 03:53:45;;;;;;;13.20;8.35;;;27.60;99.90;;;;;;5013745;28;20032;-63
2022/10/25 03:56:12;;;;;;;13.57;7.45;;;27.60;99.90;;;;;;5011920;28;20116;-66
2022/10/25 03:58:38;;;;;;;19.67;12.75;;;27.70;99.90;;;;;;5014098;28;20088;-63
2022/10/25 04:01:08;;;;;;;14.77;7.80;;;27.70;99.90;;;;;;5013277;28;20018;-64
2022/10/25 04:03:35;;;;;;;43.63;25.52;;;27.70;99.90;;;;;;5013711;28;20163;-65
2022/10/25 04:06:02;;;;;;;33.67;20.92;;;27.80;99.90;;;;;;5013651;28;20022;-63
2022/10/25 04:08:29;;;;;;;16.15;12.15;;;27.90;99.90;;;;;;5013450;28;20443;-64
2022/10/25 04:10:55;;;;;;;11.13;7.88;;;28.00;99.90;;;;;;5013829;28;20014;-65
2022/10/25 04:13:22;;;;;;;16.85;8.20;;;28.00;99.90;;;;;;5013369;28;20029;-65
2022/10/25 04:15:48;;;;;;;9.20;6.68;;;28.00;99.90;;;;;;5013479;28;20025;-65
2022/10/25 04:18:15;;;;;;;14.15;7.60;;;28.00;99.90;;;;;;5013863;28;20029;-66
2022/10/25 04:20:41;;;;;;;9.00;6.70;;;28.00;99.90;;;;;;5013813;28;20037;-65
2022/10/25 04:23:08;;;;;;;11.02;6.57;;;28.20;99.90;;;;;;5013212;28;20022;-64
2022/10/25 04:25:34;;;;;;;14.70;7.43;;;28.20;99.90;;;;;;5012879;28;20025;-66
2022/10/25 04:28:01;;;;;;;12.00;7.40;;;28.20;99.90;;;;;;5011324;28;20028;-65
2022/10/25 04:30:28;;;;;;;8.98;7.03;;;28.30;99.90;;;;;;5013032;28;20029;-67
2022/10/25 04:32:57;;;;;;;12.98;7.10;;;28.40;99.90;;;;;;5013565;28;20072;-64
2022/10/25 04:35:23;;;;;;;9.05;6.88;;;28.50;99.90;;;;;;5013713;28;20076;-66
2022/10/25 04:37:50;;;;;;;9.55;6.90;;;28.50;99.90;;;;;;5013370;28;20521;-63
2022/10/25 04:40:20;;;;;;;11.00;6.70;;;28.50;99.90;;;;;;5011122;28;20050;-61
2022/10/25 04:42:47;;;;;;;11.95;6.82;;;28.50;99.90;;;;;;5002287;28;20029;-64
2022/10/25 04:45:13;;;;;;;13.50;7.68;;;28.40;99.90;;;;;;4993919;28;20037;-62
2022/10/25 04:47:40;;;;;;;19.02;11.35;;;28.50;99.90;;;;;;4994594;28;20522;-64
2022/10/25 04:50:07;;;;;;;16.88;12.07;;;28.60;99.90;;;;;;5005565;28;20022;-64
2022/10/25 04:52:33;;;;;;;15.55;9.60;;;28.60;99.90;;;;;;5014008;28;20030;-60
2022/10/25 04:55:00;;;;;;;9.90;6.43;;;28.70;99.90;;;;;;5013996;28;20053;-63
2022/10/25 04:57:27;;;;;;;9.90;7.82;;;28.60;99.90;;;;;;5013585;28;20101;-62
2022/10/25 04:59:55;;;;;;;14.05;10.20;;;28.70;99.90;;;;;;5013224;28;20471;-60
2022/10/25 05:02:21;;;;;;;10.35;7.38;;;28.80;99.90;;;;;;5013176;28;20033;-60
2022/10/25 05:04:48;;;;;;;29.42;18.92;;;28.90;99.90;;;;;;5013609;28;20030;-66
2022/10/25 05:07:17;;;;;;;28.00;19.88;;;29.00;99.90;;;;;;5013497;28;20026;-66
2022/10/25 05:09:44;;;;;;;10.40;7.28;;;29.10;99.90;;;;;;5012893;28;20037;-59
2022/10/25 05:12:11;;;;;;;13.00;8.05;;;29.20;99.90;;;;;;5013624;28;20036;-70
2022/10/25 05:14:37;;;;;;;18.48;11.25;;;29.30;99.90;;;;;;5013223;28;20053;-67
2022/10/25 05:17:04;;;;;;;12.57;8.05;;;29.40;99.90;;;;;;5012884;28;20049;-61
2022/10/25 05:19:30;;;;;;;11.77;7.55;;;29.30;99.90;;;;;;5013584;28;20379;-62
2022/10/25 05:21:57;;;;;;;25.30;17.88;;;29.30;99.90;;;;;;5013530;28;20097;-66
2022/10/25 05:24:23;;;;;;;28.23;20.83;;;29.40;99.90;;;;;;5013015;28;20114;-63
2022/10/25 05:26:50;;;;;;;14.00;8.98;;;29.40;99.90;;;;;;5013103;28;20112;-63
2022/10/25 05:29:16;;;;;;;62.25;48.30;;;29.40;99.90;;;;;;5013137;28;20036;-67
2022/10/25 05:31:43;;;;;;;15.68;9.50;;;29.40;99.90;;;;;;5013039;28;20034;-66
2022/10/25 05:34:10;;;;;;;11.55;7.30;;;29.40;99.90;;;;;;5013150;28;20040;-65
2022/10/25 05:36:36;;;;;;;32.97;24.75;;;29.50;99.90;;;;;;5012754;28;20026;-59
2022/10/25 05:39:03;;;;;;;57.28;38.08;;;29.60;99.90;;;;;;5012888;28;20049;-67
2022/10/25 05:41:30;;;;;;;13.07;8.00;;;29.70;99.90;;;;;;5013194;28;20060;-69
2022/10/25 05:43:58;;;;;;;20.70;10.95;;;29.70;99.90;;;;;;5012705;28;20037;-64
2022/10/25 05:46:24;;;;;;;62.13;39.33;;;29.80;99.90;;;;;;5010004;28;20101;-68
2022/10/25 05:48:52;;;;;;;68.93;52.00;;;30.00;99.90;;;;;;5012121;28;20026;-61
2022/10/25 05:51:22;;;;;;;17.17;14.70;;;30.20;99.90;;;;;;5012300;28;20029;-65
2022/10/25 05:53:51;;;;;;;10.85;7.40;;;30.20;99.90;;;;;;5012111;28;20049;-65
2022/10/25 05:56:19;;;;;;;9.48;6.90;;;30.20;99.90;;;;;;5015993;28;20434;-65
2022/10/25 05:58:46;;;;;;;13.48;7.72;;;30.10;99.90;;;;;;5015469;28;20026;-66
2022/10/25 06:01:15;;;;;;;42.63;32.17;;;30.20;99.90;;;;;;5019372;28;20025;-65
2022/10/25 06:03:42;;;;;;;18.58;8.15;;;30.20;99.90;;;;;;5014623;28;20030;-63
2022/10/25 06:06:11;;;;;;;13.73;8.90;;;30.20;99.90;;;;;;5015013;28;20360;-63
2022/10/25 06:08:38;;;;;;;19.83;10.57;;;30.20;99.90;;;;;;4999119;28;20027;-66
2022/10/25 06:11:10;;;;;;;67.97;46.95;;;30.20;99.90;;;;;;4999437;28;20038;-65
2022/10/25 06:13:37;;;;;;;13.50;7.97;;;30.40;99.90;;;;;;5007457;28;20033;-62
2022/10/25 06:16:06;;;;;;;13.23;7.90;;;30.40;99.90;;;;;;5017046;28;20032;-63
2022/10/25 06:18:34;;;;;;;10.15;7.38;;;30.30;99.90;;;;;;5015994;28;20132;-68
2022/10/25 06:21:05;;;;;;;10.15;7.75;;;30.30;99.90;;;;;;5015726;28;20379;-68
2022/10/25 06:23:31;;;;;;;9.13;7.57;;;30.40;99.90;;;;;;5014656;28;20018;-70
2022/10/25 06:26:00;;;;;;;16.58;7.57;;;30.40;99.90;;;;;;5014809;28;20014;-65
2022/10/25 06:28:28;;;;;;;14.10;6.82;;;30.30;99.90;;;;;;5015813;28;20037;-66
2022/10/25 06:31:01;;;;;;;8.93;6.63;;;30.30;99.90;;;;;;5016105;28;20438;-66
2022/10/25 06:33:28;;;;;;;12.32;7.40;;;30.20;99.90;;;;;;5016315;28;20026;-67
2022/10/25 06:36:00;;;;;;;9.88;6.35;;;30.20;99.90;;;;;;5015718;28;20535;-66
2022/10/25 06:38:27;;;;;;;11.07;5.35;;;30.30;99.90;;;;;;5016299;28;20034;-67
2022/10/25 06:41:05;;;;;;;11.55;6.50;;;30.40;99.90;;;;;;5015982;28;20046;-67
2022/10/25 06:43:33;;;;;;;12.60;6.63;;;30.40;99.90;;;;;;5016214;28;20060;-65
2022/10/25 06:46:10;;;;;;;12.38;5.55;;;30.40;99.90;;;;;;5016440;28;20411;-60
2022/10/25 06:48:37;;;;;;;9.10;6.13;;;30.30;99.90;;;;;;5015667;28;20025;-66
2022/10/25 06:51:08;;;;;;;15.05;7.32;;;30.30;99.90;;;;;;5015755;28;20033;-69
2022/10/25 06:53:36;;;;;;;20.38;7.72;;;30.30;99.90;;;;;;5015809;28;20034;-65
2022/10/25 06:56:04;;;;;;;14.10;7.95;;;30.40;99.90;;;;;;5015759;28;20176;-66
2022/10/25 06:58:32;;;;;;;17.05;11.55;;;30.30;99.90;;;;;;5015726;28;20475;-65
2022/10/25 07:01:02;;;;;;;10.82;7.57;;;30.40;99.90;;;;;;5015867;28;20033;-63
2022/10/25 07:03:33;;;;;;;10.88;5.63;;;30.40;99.90;;;;;;5015553;28;20030;-65
2022/10/25 07:06:13;;;;;;;14.63;5.60;;;30.40;99.90;;;;;;5014539;28;20022;-66
2022/10/25 07:08:51;;;;;;;39.45;30.85;;;30.40;99.90;;;;;;5015480;28;20045;-60
2022/10/25 07:11:19;;;;;;;22.02;12.98;;;30.50;99.90;;;;;;5014426;28;20117;-67
2022/10/25 07:13:46;;;;;;;7.32;5.20;;;30.50;99.90;;;;;;5014670;28;20034;-66
2022/10/25 07:16:16;;;;;;;8.25;5.13;;;30.50;99.90;;;;;;5014336;28;20025;-65
2022/10/25 07:18:43;;;;;;;10.07;5.38;;;30.40;99.90;;;;;;5011731;28;20120;-69
2022/10/25 07:21:17;;;;;;;10.80;5.75;;;30.30;99.90;;;;;;5014177;28;20018;-66
2022/10/25 07:23:44;;;;;;;15.35;5.57;;;30.40;99.90;;;;;;5011674;28;20033;-67
2022/10/25 07:26:13;;;;;;;13.23;5.40;;;30.30;99.90;;;;;;5014199;28;20017;-66
2022/10/25 07:28:42;;;;;;;10.30;6.68;;;30.40;99.90;;;;;;5012939;28;20426;-68
2022/10/25 07:31:13;;;;;;;7.05;4.70;;;30.40;99.90;;;;;;5014622;28;20026;-67
2022/10/25 07:33:39;;;;;;;12.32;5.75;;;30.50;99.90;;;;;;5014957;28;20036;-67
2022/10/25 07:36:06;;;;;;;9.77;6.65;;;30.50;99.90;;;;;;5015035;28;20073;-69
2022/10/25 07:38:33;;;;;;;12.75;7.65;;;30.50;99.90;;;;;;5014706;28;20034;-68
2022/10/25 07:40:59;;;;;;;16.80;6.40;;;30.50;99.90;;;;;;5015255;28;20482;-65
2022/10/25 07:43:27;;;;;;;9.05;5.70;;;30.50;99.90;;;;;;5013992;28;20474;-66
2022/10/25 07:45:54;;;;;;;10.02;6.05;;;30.50;99.90;;;;;;5013928;28;20029;-67
2022/10/25 07:48:22;;;;;;;8.80;5.35;;;30.60;99.90;;;;;;5013306;28;20068;-66
2022/10/25 07:50:48;;;;;;;12.07;6.30;;;30.60;99.90;;;;;;5013208;28;20078;-64
2022/10/25 07:53:15;;;;;;;16.77;5.63;;;30.60;99.90;;;;;;5011488;28;20044;-62
2022/10/25 07:55:41;;;;;;;10.68;4.75;;;30.60;99.90;;;;;;5013425;28;20018;-63
2022/10/25 07:58:11;;;;;;;8.93;5.43;;;30.60;99.90;;;;;;5013427;28;20100;-63
2022/10/25 08:00:38;;;;;;;11.50;5.07;;;30.60;99.90;;;;;;5010775;28;20022;-65
2022/10/25 08:03:05;;;;;;;12.02;5.30;;;30.60;99.90;;;;;;5013203;28;20030;-66
2022/10/25 08:05:31;;;;;;;6.45;4.38;;;30.50;99.90;;;;;;5013062;28;20108;-62
2022/10/25 08:07:58;;;;;;;24.67;13.02;;;30.50;99.90;;;;;;5013385;28;20053;-63
2022/10/25 08:10:24;;;;;;;25.10;12.20;;;30.50;99.90;;;;;;5012991;28;20030;-64
2022/10/25 08:12:51;;;;;;;24.40;7.00;;;30.60;99.90;;;;;;5012761;28;20076;-60
2022/10/25 08:15:17;;;;;;;7.97;6.10;;;30.70;99.90;;;;;;5012981;28;20029;-64
2022/10/25 08:17:44;;;;;;;11.00;5.60;;;30.70;99.90;;;;;;5013043;28;20029;-65
2022/10/25 08:20:11;;;;;;;9.15;6.45;;;30.80;99.90;;;;;;5011462;28;20445;-67
2022/10/25 08:22:37;;;;;;;13.90;5.55;;;30.90;99.90;;;;;;5012866;28;20030;-66
2022/10/25 08:25:04;;;;;;;10.20;5.85;;;30.80;99.90;;;;;;5013111;28;20030;-66
2022/10/25 08:27:31;;;;;;;10.68;5.15;;;30.70;99.90;;;;;;5013093;28;20028;-66
2022/10/25 08:29:58;;;;;;;22.85;15.73;;;30.60;99.90;;;;;;5014165;28;20025;-66
2022/10/25 08:32:24;;;;;;;11.55;6.55;;;30.60;99.90;;;;;;5013688;28;20394;-65
2022/10/25 08:34:51;;;;;;;187.68;149.30;;;30.70;99.90;;;;;;5014220;28;20185;-63
2022/10/25 08:37:17;;;;;;;22.02;16.40;;;30.70;99.90;;;;;;5013549;28;20030;-65
2022/10/25 08:39:44;;;;;;;55.47;43.90;;;30.70;99.90;;;;;;5019258;28;20072;-67
2022/10/25 08:42:21;;;;;;;8.93;6.90;;;30.80;99.90;;;;;;5013130;28;20459;-67
2022/10/25 08:44:48;;;;;;;14.48;7.65;;;30.80;99.90;;;;;;5012986;28;20465;-65
2022/10/25 08:47:37;;;;;;;19.58;11.45;;;30.90;99.90;;;;;;5012896;28;20030;-62
2022/10/25 08:50:26;;;;;;;13.20;5.28;;;30.80;99.90;;;;;;5011791;28;20041;-63
2022/10/25 08:52:57;;;;;;;11.60;5.50;;;30.80;99.90;;;;;;5011696;28;20042;-64
2022/10/25 08:55:29;;;;;;;10.87;6.43;;;30.80;99.90;;;;;;5008859;28;20046;-64
2022/10/25 08:57:57;;;;;;;19.63;13.60;;;30.80;99.90;;;;;;5011248;28;20387;-63
2022/10/25 09:00:25;;;;;;;15.48;9.15;;;30.90;99.90;;;;;;5010375;28;20048;-65
2022/10/25 09:02:53;;;;;;;49.53;30.48;;;30.90;99.90;;;;;;5012194;28;20014;-64
2022/10/25 09:05:41;;;;;;;31.45;20.35;;;30.90;99.90;;;;;;5012596;28;20041;-64
2022/10/25 09:08:14;;;;;;;23.58;14.32;;;30.90;99.90;;;;;;5012686;28;20030;-63
2022/10/25 09:11:00;;;;;;;20.15;7.72;;;30.90;99.90;;;;;;4994307;28;20037;-65
2022/10/25 09:13:36;;;;;;;11.70;8.30;;;30.80;99.90;;;;;;5010161;28;20042;-64
2022/10/25 09:16:42;;;;;;;15.10;9.35;;;30.70;99.90;;;;;;5013840;28;20084;-64
2022/10/25 09:19:19;;;;;;;17.33;9.75;;;30.70;99.90;;;;;;4971520;28;20455;-63
2022/10/25 09:21:52;;;;;;;20.02;11.20;;;30.70;99.90;;;;;;4972393;28;20042;-63
2022/10/25 09:24:27;;;;;;;19.77;12.20;;;30.60;99.90;;;;;;4971741;28;20504;-64
2022/10/25 09:27:11;;;;;;;19.35;10.57;;;30.70;99.90;;;;;;4972120;28;20070;-63
2022/10/25 09:29:46;;;;;;;23.20;11.50;;;30.70;99.90;;;;;;4973407;28;20030;-64
2022/10/25 09:32:35;;;;;;;24.77;13.10;;;30.70;99.90;;;;;;4973453;28;20045;-62
2022/10/25 09:35:04;;;;;;;41.55;25.33;;;30.70;99.90;;;;;;4955627;29;20035;-65
2022/10/25 09:37:40;;;;;;;25.10;14.30;;;30.70;99.90;;;;;;4970705;28;20031;-63
2022/10/25 09:40:22;;;;;;;20.73;12.77;;;30.70;99.90;;;;;;4971704;28;20151;-66
2022/10/25 09:42:56;;;;;;;16.87;9.60;;;30.70;99.90;;;;;;4973593;28;20025;-64
2022/10/25 09:45:25;;;;;;;14.27;8.65;;;30.70;99.90;;;;;;4974069;28;20283;-64
2022/10/25 09:48:01;;;;;;;13.38;8.50;;;30.70;99.90;;;;;;4974468;28;20121;-64
2022/10/25 09:50:34;;;;;;;12.48;7.25;;;30.60;99.90;;;;;;4973110;28;20019;-64
2022/10/25 09:53:11;;;;;;;18.98;9.48;;;30.60;99.90;;;;;;4972159;28;20058;-62
2022/10/25 09:55:52;;;;;;;42.20;21.23;;;30.50;99.90;;;;;;4974330;28;20038;-64
2022/10/25 09:58:20;;;;;;;44.78;24.50;;;30.40;99.90;;;;;;4972208;28;20122;-66
2022/10/25 10:00:48;;;;;;;34.75;13.82;;;30.40;99.90;;;;;;4975942;28;20110;-67
2022/10/25 10:03:14;;;;;;;20.05;10.43;;;30.40;99.90;;;;;;5005797;28;20068;-65
2022/10/25 10:06:03;;;;;;;20.08;9.52;;;30.30;99.90;;;;;;5016761;28;20065;-65
2022/10/25 10:08:34;;;;;;;18.35;9.98;;;30.30;99.90;;;;;;5016549;28;20022;-66
2022/10/25 10:11:03;;;;;;;17.42;9.93;;;30.30;99.90;;;;;;5016542;28;20025;-66
2022/10/25 10:13:39;;;;;;;13.95;8.90;;;30.30;99.90;;;;;;5016461;28;20104;-65
2022/10/25 10:16:35;;;;;;;15.63;9.88;;;30.20;99.90;;;;;;5016527;28;20025;-64
2022/10/25 10:19:25;;;;;;;28.67;13.23;;;30.20;99.90;;;;;;5015902;28;20030;-64
2022/10/25 10:21:54;;;;;;;25.90;11.18;;;30.20;99.90;;;;;;5016410;28;20076;-64
2022/10/25 10:24:26;;;;;;;18.55;11.15;;;30.30;99.90;;;;;;5016190;28;20463;-64
2022/10/25 10:26:56;;;;;;;22.77;10.55;;;30.30;99.90;;;;;;5016317;28;20030;-65
2022/10/25 10:29:28;;;;;;;16.80;10.35;;;30.30;99.90;;;;;;5016561;28;20386;-65
2022/10/25 10:31:58;;;;;;;34.38;11.48;;;30.30;99.90;;;;;;5016206;28;20398;-65
2022/10/25 10:34:26;;;;;;;21.02;9.90;;;30.30;99.90;;;;;;5016073;28;20037;-63
2022/10/25 10:37:03;;;;;;;21.83;11.13;;;30.20;99.90;;;;;;5010726;28;20041;-61
2022/10/25 10:39:30;;;;;;;39.63;16.30;;;30.30;99.90;;;;;;5000853;28;20107;-63
2022/10/25 10:42:02;;;;;;;42.55;19.30;;;30.30;99.90;;;;;;5014475;28;20047;-60
2022/10/25 10:44:33;;;;;;;43.83;20.20;;;30.20;99.90;;;;;;5015666;28;20071;-64
2022/10/25 10:47:09;;;;;;;57.40;33.67;;;30.20;99.90;;;;;;5013601;28;20026;-63
2022/10/25 10:49:39;;;;;;;53.35;30.88;;;30.10;99.90;;;;;;5015492;28;20022;-61
2022/10/25 10:52:23;;;;;;;84.82;44.97;;;30.10;99.90;;;;;;5016173;28;20479;-62
2022/10/25 10:54:51;;;;;;;134.18;68.82;;;30.10;99.90;;;;;;5015097;28;20018;-62
2022/10/25 10:57:31;;;;;;;96.18;49.50;;;30.10;99.90;;;;;;5013163;28;20037;-60
2022/10/25 10:59:59;;;;;;;26.77;14.75;;;30.00;99.90;;;;;;5015431;28;20041;-60
2022/10/25 11:02:45;;;;;;;19.80;12.60;;;29.90;99.90;;;;;;5015680;28;20097;-61
2022/10/25 11:05:22;;;;;;;14.73;11.80;;;29.80;99.90;;;;;;5015652;28;20395;-61
2022/10/25 11:08:08;;;;;;;16.25;11.95;;;29.60;99.90;;;;;;5014375;28;20018;-60
2022/10/25 11:10:37;;;;;;;15.70;12.15;;;29.60;99.90;;;;;;4955038;29;20042;-64
2022/10/25 11:13:15;;;;;;;21.15;12.73;;;29.50;99.90;;;;;;4954857;29;20050;-62
2022/10/25 11:15:51;;;;;;;30.65;14.35;;;29.50;99.90;;;;;;4950693;29;20033;-64
2022/10/25 11:18:44;;;;;;;22.95;12.00;;;29.30;99.90;;;;;;4952826;29;20106;-62
2022/10/25 11:21:17;;;;;;;;;;;29.00;99.90;;;;;;4953910;29;20518;-63
2022/10/25 11:24:02;;;;;;;36.20;20.42;;;28.90;99.90;;;;;;4953563;29;19914;-61
2022/10/25 11:26:49;;;;;;;40.03;21.00;;;28.80;99.90;;;;;;4950941;29;20096;-63
2022/10/25 11:29:29;;;;;;;36.28;21.17;;;28.60;99.90;;;;;;4896342;29;20573;-62
2022/10/25 11:32:02;;;;;;;32.65;20.08;;;28.70;99.90;;;;;;4896281;29;20025;-62
2022/10/25 11:34:43;;;;;;;36.88;21.77;;;28.60;99.90;;;;;;4893823;29;20047;-61
2022/10/25 11:37:20;;;;;;;30.73;19.67;;;28.60;99.90;;;;;;4896599;29;20032;-64
2022/10/25 11:40:02;;;;;;;34.85;20.58;;;28.40;99.90;;;;;;4892343;29;20048;-63
2022/10/25 11:43:00;;;;;;;36.95;21.45;;;28.40;99.90;;;;;;4897526;29;20020;-63
2022/10/25 11:45:50;;;;;;;40.20;22.52;;;28.40;99.90;;;;;;4896154;29;20029;-63
2022/10/25 11:48:27;;;;;;;43.22;23.48;;;28.40;99.90;;;;;;4925974;29;20036;-63
2022/10/25 11:51:14;;;;;;;42.10;23.48;;;28.40;99.90;;;;;;4933278;29;20039;-63
2022/10/25 11:53:59;;;;;;;41.05;21.52;;;28.50;99.90;;;;;;4933217;29;20031;-62
2022/10/25 11:56:39;;;;;;;34.58;21.45;;;28.50;99.90;;;;;;4933010;29;20031;-63
2022/10/25 11:59:07;;;;;;;33.05;19.52;;;28.40;99.90;;;;;;4933287;29;20408;-63
2022/10/25 12:02:13;;;;;;;31.35;19.33;;;28.40;99.90;;;;;;4934918;29;20376;-62
2022/10/25 12:04:49;;;;;;;35.65;22.35;;;28.40;99.90;;;;;;4935261;29;20024;-61
2022/10/25 12:07:24;;;;;;;32.85;21.48;;;28.40;99.90;;;;;;4934633;29;20102;-64
2022/10/25 12:10:23;;;;;;;38.05;22.42;;;28.40;99.90;;;;;;4935466;29;20103;-63
2022/10/25 12:12:58;;;;;;;40.58;22.30;;;28.30;99.90;;;;;;4914898;29;20036;-64
2022/10/25 12:15:36;;;;;;;32.65;23.40;;;28.20;99.90;;;;;;4914356;29;20044;-64
2022/10/25 12:18:06;;;;;;;37.53;23.13;;;28.10;99.90;;;;;;4915525;29;20100;-63
2022/10/25 12:20:36;;;;;;;38.88;26.10;;;28.10;99.90;;;;;;4915628;29;20039;-64
2022/10/25 12:23:09;;;;;;;39.80;25.10;;;28.10;99.90;;;;;;4914712;29;20091;-63
2022/10/25 12:25:48;;;;;;;34.53;24.40;;;28.10;99.90;;;;;;4914517;29;20473;-62
2022/10/25 12:28:48;;;;;;;44.35;31.27;;;28.10;99.90;;;;;;4915237;29;20025;-62
2022/10/25 12:31:17;;;;;;;45.63;25.15;;;28.20;99.90;;;;;;4920926;29;20043;-63
2022/10/25 12:33:53;;;;;;;34.97;23.05;;;28.20;99.90;;;;;;4953113;29;20063;-63
2022/10/25 12:36:42;;;;;;;31.58;20.75;;;28.30;99.90;;;;;;4953234;29;20047;-64
2022/10/25 12:39:12;;;;;;;33.70;21.33;;;28.20;99.90;;;;;;4953174;29;20084;-63
2022/10/25 12:41:43;;;;;;;37.40;23.02;;;28.20;99.90;;;;;;4953554;29;20062;-63
2022/10/25 12:44:29;;;;;;;35.90;24.85;;;28.20;99.90;;;;;;4951030;28;20194;-63
2022/10/25 12:46:57;;;;;;;34.45;24.48;;;28.20;99.90;;;;;;4931803;29;20508;-63
2022/10/25 12:50:00;;;;;;;39.20;25.63;;;28.20;99.90;;;;;;4946706;28;20074;-63
2022/10/25 12:52:33;;;;;;;45.47;26.35;;;28.20;99.90;;;;;;4931347;29;20043;-63
2022/10/25 12:55:20;;;;;;;41.85;24.05;;;28.20;99.90;;;;;;4931045;29;20036;-64